Dades meteomassalio
Diari Summary for Gener 12, 2017 Units:  Metric    English   Both
« Previous Day
Next Day »
Diari Semanal Mensual Anual Personalitzat
  Maxima: Minima: Mijana:
Temperatura: 18.6 °C 6.6 °C 12 °C
Rosada: 9.4 °C 4.8 °C 7.6 °C
Humitat: 90 % 53 % 75 %
Velocitat del vent: 22.2 km/h 0.0 km/h 4.3 km/h
Racha vent: 22.2 km/h - -
Vent:- - WSW
Pressio: 1026.0 hPa 1017.2 hPa -
Pluja: 0.0 mm    
Historical Graphs
 
 
Tabular Data for Gener 12, 2017
Time Temperature Dew Point Pressure Wind Wind Speed Wind Gust Humidity Rainfall Rate (Hourly) solar Conditions
00:02 12.1 °C 8.3 °C 1025.6 hPa West 18.5 km/h 18.5 km/h 78 % 0.0 mm 0.0 W/m2 CLR
00:07 12.0 °C 8.3 °C 1025.6 hPa West 18.5 km/h 18.5 km/h 78 % 0.0 mm 0.0 W/m2 CLR
00:12 11.9 °C 8.2 °C 1025.6 hPa West 18.5 km/h 18.5 km/h 78 % 0.0 mm 0.0 W/m2 CLR
00:17 11.8 °C 8.3 °C 1026.0 hPa WSW 9.7 km/h 10.9 km/h 79 % 0.0 mm 0.0 W/m2 CLR
00:22 11.8 °C 8.3 °C 1026.0 hPa WSW 19.3 km/h 19.3 km/h 79 % 0.0 mm 0.0 W/m2 CLR
00:27 11.8 °C 8.1 °C 1026.0 hPa WSW 8.0 km/h 8.0 km/h 78 % 0.0 mm 0.0 W/m2 CLR
00:32 11.6 °C 8.1 °C 1025.6 hPa WSW 1.9 km/h 1.9 km/h 79 % 0.0 mm 0.0 W/m2 CLR
00:37 11.6 °C 8.1 °C 1025.6 hPa WSW 5.6 km/h   79 % 0.0 mm 0.0 W/m2 CLR
00:42 11.7 °C 8.2 °C 1026.0 hPa Calm     79 % 0.0 mm 0.0 W/m2 CLR
00:47 11.6 °C 8.1 °C 1026.0 hPa Calm     79 % 0.0 mm 0.0 W/m2 CLR
00:52 11.3 °C 7.9 °C 1025.6 hPa Calm     80 % 0.0 mm 0.0 W/m2 CLR
00:57 11.2 °C 8.1 °C 1025.6 hPa SW 5.6 km/h 5.6 km/h 81 % 0.0 mm 0.0 W/m2 CLR
01:02 11.2 °C 8.0 °C 1026.0 hPa Calm     81 % 0.0 mm 0.0 W/m2 CLR
01:07 11.1 °C 7.9 °C 1025.6 hPa Calm     81 % 0.0 mm 0.0 W/m2 CLR
01:12 11.1 °C 7.9 °C 1025.6 hPa Calm     81 % 0.0 mm 0.0 W/m2 CLR
01:17 11.0 °C 7.9 °C 1025.6 hPa Calm     81 % 0.0 mm 0.0 W/m2 CLR
01:22 10.9 °C 7.8 °C 1025.6 hPa Calm     81 % 0.0 mm 0.0 W/m2 CLR
01:27 10.8 °C 7.7 °C 1025.6 hPa Calm     81 % 0.0 mm 0.0 W/m2 CLR
01:32 10.9 °C 7.8 °C 1025.6 hPa WSW 5.6 km/h 5.6 km/h 81 % 0.0 mm 0.0 W/m2 CLR
01:37 10.9 °C 7.8 °C 1025.6 hPa SW 5.6 km/h 5.6 km/h 81 % 0.0 mm 0.0 W/m2 CLR
01:42 11.0 °C 7.9 °C 1025.6 hPa SW 8.0 km/h 8.0 km/h 81 % 0.0 mm 0.0 W/m2 CLR
01:47 11.0 °C 7.7 °C 1025.6 hPa Calm     80 % 0.0 mm 0.0 W/m2 CLR
01:52 10.9 °C 7.8 °C 1025.6 hPa SW 9.3 km/h 9.3 km/h 81 % 0.0 mm 0.0 W/m2 CLR
01:57 10.9 °C 7.6 °C 1025.6 hPa SW 3.7 km/h 3.7 km/h 80 % 0.0 mm 0.0 W/m2 CLR
02:02 10.8 °C 7.7 °C 1025.6 hPa Calm     81 % 0.0 mm 0.0 W/m2 CLR
02:07 10.7 °C 7.6 °C 1025.6 hPa Calm     81 % 0.0 mm 0.0 W/m2 CLR
02:12 10.6 °C 7.5 °C 1025.6 hPa Calm     81 % 0.0 mm 0.0 W/m2 CLR
02:17 10.5 °C 7.6 °C 1025.6 hPa WSW 5.6 km/h 5.6 km/h 82 % 0.0 mm 0.0 W/m2 CLR
02:22 10.8 °C 7.7 °C 1025.6 hPa West 9.3 km/h 9.3 km/h 81 % 0.0 mm 0.0 W/m2 CLR
02:27 11.0 °C 7.7 °C 1025.6 hPa West 16.7 km/h 16.7 km/h 80 % 0.0 mm 0.0 W/m2 CLR
02:32 11.1 °C 7.7 °C 1025.6 hPa West 1.9 km/h 1.9 km/h 80 % 0.0 mm 0.0 W/m2 CLR
02:37 11.1 °C 7.8 °C 1026.0 hPa West 5.6 km/h 5.6 km/h 80 % 0.0 mm 0.0 W/m2 CLR
02:42 11.1 °C 7.6 °C 1026.0 hPa West 16.7 km/h 16.7 km/h 79 % 0.0 mm 0.0 W/m2 CLR
02:47 11.2 °C 7.7 °C 1026.0 hPa West 18.5 km/h 18.5 km/h 79 % 0.0 mm 0.0 W/m2 CLR
02:52 11.1 °C 7.6 °C 1025.6 hPa WSW 18.5 km/h 18.5 km/h 79 % 0.0 mm 0.0 W/m2 CLR
02:57 10.9 °C 7.6 °C 1025.6 hPa WSW 13.0 km/h 13.0 km/h 80 % 0.0 mm 0.0 W/m2 CLR
03:02 10.8 °C 7.5 °C 1025.6 hPa WSW 4.8 km/h 4.8 km/h 80 % 0.0 mm 0.0 W/m2 CLR
03:07 10.6 °C 7.3 °C 1025.6 hPa WSW 9.3 km/h 9.3 km/h 80 % 0.0 mm 0.0 W/m2 CLR
03:12 10.4 °C 7.3 °C 1025.6 hPa WSW 5.6 km/h 5.6 km/h 81 % 0.0 mm 0.0 W/m2 CLR
03:17 10.3 °C 7.2 °C 1025.6 hPa WSW 9.3 km/h 9.3 km/h 81 % 0.0 mm 0.0 W/m2 CLR
03:22 10.3 °C 7.3 °C 1025.3 hPa WSW 9.3 km/h 9.3 km/h 82 % 0.0 mm 0.0 W/m2 CLR
03:27 10.2 °C 7.3 °C 1025.3 hPa WSW 7.4 km/h 7.4 km/h 82 % 0.0 mm 0.0 W/m2 CLR
03:32 10.1 °C 7.2 °C 1025.3 hPa Calm     82 % 0.0 mm 0.0 W/m2 CLR
03:37 10.0 °C 7.1 °C 1025.6 hPa WSW 9.3 km/h 9.3 km/h 82 % 0.0 mm 0.0 W/m2 CLR
03:42 9.9 °C 7.1 °C 1025.3 hPa WSW 7.4 km/h 7.4 km/h 83 % 0.0 mm 0.0 W/m2 CLR
03:47 9.9 °C 7.2 °C 1025.6 hPa WSW 13.0 km/h 13.0 km/h 83 % 0.0 mm 0.0 W/m2 CLR
03:52 9.9 °C 7.2 °C 1025.6 hPa WSW 7.4 km/h 7.4 km/h 83 % 0.0 mm 0.0 W/m2 CLR
03:57 10.0 °C 7.2 °C 1025.6 hPa WSW 9.3 km/h 9.3 km/h 83 % 0.0 mm 0.0 W/m2 CLR
04:02 10.1 °C 7.2 °C 1025.3 hPa WSW 11.1 km/h 11.1 km/h 82 % 0.0 mm 0.0 W/m2 CLR
04:07 10.2 °C 7.3 °C 1025.3 hPa West 9.3 km/h 9.3 km/h 82 % 0.0 mm 0.0 W/m2 CLR
04:12 10.3 °C 7.4 °C 1025.3 hPa West 11.1 km/h 11.1 km/h 82 % 0.0 mm 0.0 W/m2 CLR
04:17 10.4 °C 7.3 °C 1024.9 hPa West 7.4 km/h 7.4 km/h 81 % 0.0 mm 0.0 W/m2 CLR
04:22 10.3 °C 7.2 °C 1024.9 hPa West 3.7 km/h   81 % 0.0 mm 0.0 W/m2 CLR
04:27 10.0 °C 6.9 °C 1025.3 hPa WSW 5.6 km/h 5.6 km/h 81 % 0.0 mm 0.0 W/m2 CLR
04:32 9.5 °C 6.6 °C 1024.9 hPa WSW 5.6 km/h   82 % 0.0 mm 0.0 W/m2 CLR
04:37 9.3 °C 6.7 °C 1024.9 hPa WSW 6.4 km/h 6.4 km/h 84 % 0.0 mm 0.0 W/m2 CLR
04:43 9.3 °C 6.8 °C 1025.3 hPa WSW 5.6 km/h 5.6 km/h 84 % 0.0 mm 0.0 W/m2 CLR
04:48 9.4 °C 6.9 °C 1024.9 hPa WSW 5.6 km/h 5.6 km/h 84 % 0.0 mm 0.0 W/m2 CLR
04:53 9.6 °C 7.0 °C 1025.3 hPa WSW 5.6 km/h 5.6 km/h 84 % 0.0 mm 0.0 W/m2 CLR
04:58 9.5 °C 6.9 °C 1024.9 hPa WSW 8.0 km/h 8.0 km/h 84 % 0.0 mm 0.0 W/m2 CLR
05:03 9.6 °C 7.1 °C 1024.9 hPa WSW 11.1 km/h 11.1 km/h 84 % 0.0 mm 0.0 W/m2 CLR
05:08 9.7 °C 7.0 °C 1024.9 hPa WSW 9.3 km/h 9.3 km/h 83 % 0.0 mm 0.0 W/m2 CLR
05:13 9.7 °C 6.9 °C 1024.9 hPa WSW 11.1 km/h 11.1 km/h 83 % 0.0 mm 0.0 W/m2 CLR
05:18 9.7 °C 7.0 °C 1024.9 hPa WSW 11.1 km/h 11.1 km/h 83 % 0.0 mm 0.0 W/m2 CLR
05:23 9.8 °C 7.0 °C 1024.9 hPa WSW 7.4 km/h 7.4 km/h 83 % 0.0 mm 0.0 W/m2 CLR
05:28 9.8 °C 7.0 °C 1024.9 hPa WSW 9.3 km/h 9.3 km/h 83 % 0.0 mm 0.0 W/m2 CLR
05:33 9.8 °C 7.0 °C 1024.9 hPa WSW 9.3 km/h 9.3 km/h 83 % 0.0 mm 0.0 W/m2 CLR
05:38 9.6 °C 6.9 °C 1024.9 hPa SW 7.4 km/h 7.4 km/h 83 % 0.0 mm 0.0 W/m2 CLR
05:43 9.3 °C 6.7 °C 1024.6 hPa SW 5.6 km/h 5.6 km/h 84 % 0.0 mm 0.0 W/m2 CLR
05:48 9.4 °C 7.0 °C 1024.6 hPa Calm     85 % 0.0 mm 0.0 W/m2 CLR
05:53 9.5 °C 6.9 °C 1024.6 hPa WSW 5.6 km/h 5.6 km/h 84 % 0.0 mm 0.0 W/m2 CLR
05:58 9.6 °C 7.0 °C 1024.6 hPa WSW 1.6 km/h   84 % 0.0 mm 0.0 W/m2 CLR
06:03 9.7 °C 7.1 °C 1024.6 hPa WSW 8.0 km/h 8.0 km/h 84 % 0.0 mm 0.0 W/m2 CLR
06:08 9.8 °C 7.2 °C 1024.6 hPa WSW 11.1 km/h 11.1 km/h 84 % 0.0 mm 0.0 W/m2 CLR
06:13 9.8 °C 7.0 °C 1024.3 hPa West 8.0 km/h 8.0 km/h 83 % 0.0 mm 0.0 W/m2 CLR
06:18 9.8 °C 7.1 °C 1024.3 hPa West 11.1 km/h 11.1 km/h 83 % 0.0 mm 0.0 W/m2 CLR
06:23 9.8 °C 7.1 °C 1024.6 hPa WSW 9.3 km/h 9.3 km/h 83 % 0.0 mm 0.0 W/m2 CLR
06:28 9.6 °C 6.7 °C 1024.3 hPa Calm     82 % 0.0 mm 0.0 W/m2 CLR
06:33 9.2 °C 6.5 °C 1024.3 hPa Calm     83 % 0.0 mm 0.0 W/m2 CLR
06:38 8.8 °C 6.3 °C 1024.6 hPa Calm     84 % 0.0 mm 0.0 W/m2 CLR
06:43 8.7 °C 6.3 °C 1024.6 hPa Calm     85 % 0.0 mm 0.0 W/m2 CLR
06:48 8.7 °C 6.3 °C 1024.6 hPa Calm     85 % 0.0 mm 0.0 W/m2 CLR
06:53 8.3 °C 5.9 °C 1024.6 hPa Calm     85 % 0.0 mm 0.0 W/m2 CLR
06:58 8.1 °C 5.9 °C 1024.6 hPa WSW 5.6 km/h 5.6 km/h 86 % 0.0 mm 0.0 W/m2 CLR
07:03 8.4 °C 6.3 °C 1024.6 hPa Calm     87 % 0.0 mm 0.0 W/m2 CLR
07:08 8.3 °C 5.9 °C 1024.6 hPa Calm     85 % 0.0 mm 0.0 W/m2 CLR
07:13 8.2 °C 6.0 °C 1024.6 hPa SW 7.4 km/h 7.4 km/h 86 % 0.0 mm 0.0 W/m2 CLR
07:18 8.2 °C 5.9 °C 1024.6 hPa Calm     86 % 0.0 mm 0.0 W/m2 CLR
07:23 7.8 °C 5.6 °C 1024.6 hPa Calm     86 % 0.0 mm 0.0 W/m2 CLR
07:28 7.6 °C 5.4 °C 1024.6 hPa Calm     86 % 0.0 mm 0.0 W/m2 CLR
07:33 7.3 °C 5.3 °C 1024.6 hPa Calm     87 % 0.0 mm 0.0 W/m2 CLR
07:38 7.3 °C 5.5 °C 1024.6 hPa Calm     88 % 0.0 mm 0.0 W/m2 CLR
07:43 7.6 °C 5.7 °C 1024.6 hPa Calm     88 % 0.0 mm 0.0 W/m2 CLR
07:48 7.8 °C 5.7 °C 1024.3 hPa SW 5.6 km/h 5.6 km/h 87 % 0.0 mm 0.0 W/m2 CLR
07:53 7.6 °C 5.6 °C 1024.6 hPa SW 7.4 km/h 7.4 km/h 87 % 0.0 mm 0.0 W/m2 CLR
07:58 7.8 °C 5.9 °C 1024.6 hPa Calm     88 % 0.0 mm 0.0 W/m2 CLR
08:03 7.8 °C 5.6 °C 1024.6 hPa Calm     86 % 0.0 mm 0.0 W/m2 CLR
08:08 7.3 °C 5.0 °C 1024.3 hPa Calm     85 % 0.0 mm 0.0 W/m2 CLR
08:13 7.0 °C 4.8 °C 1024.3 hPa Calm     86 % 0.0 mm 0.0 W/m2 CLR
08:18 6.8 °C 4.8 °C 1024.3 hPa Calm     87 % 0.0 mm 0.0 W/m2 CLR
08:23 6.7 °C 4.9 °C 1024.3 hPa Calm     88 % 0.0 mm 5.0 W/m2 BKN
08:28 6.7 °C 4.8 °C 1024.3 hPa Calm     88 % 0.0 mm 7.0 W/m2 BKN
08:33 6.6 °C 4.9 °C 1024.3 hPa Calm     89 % 0.0 mm 9.0 W/m2 BKN
08:38 6.6 °C 4.9 °C 1024.3 hPa Calm     89 % 0.0 mm 11.0 W/m2 BKN
08:43 6.7 °C 5.0 °C 1024.3 hPa Calm     89 % 0.0 mm 12.0 W/m2 BKN
08:48 6.7 °C 5.2 °C 1024.3 hPa Calm     90 % 0.0 mm 14.0 W/m2 BKN
08:53 6.8 °C 5.2 °C 1024.3 hPa Calm     89 % 0.0 mm 16.0 W/m2 BKN
08:58 6.9 °C 5.3 °C 1024.3 hPa Calm     89 % 0.0 mm 25.0 W/m2 BKN
09:03 7.2 °C 5.5 °C 1024.3 hPa Calm     89 % 0.0 mm 37.0 W/m2 BKN
09:08 7.5 °C 5.7 °C 1024.3 hPa Calm     88 % 0.0 mm 39.0 W/m2 BKN
09:13 7.6 °C 5.6 °C 1024.3 hPa Calm     87 % 0.0 mm 53.0 W/m2 BKN
09:18 7.8 °C 5.7 °C 1024.3 hPa Calm     87 % 0.0 mm 63.0 W/m2 BKN
09:23 7.8 °C 5.6 °C 1024.3 hPa Calm     86 % 0.0 mm 69.0 W/m2 BKN
09:28 7.9 °C 5.6 °C 1023.9 hPa Calm     85 % 0.0 mm 93.0 W/m2 BKN
09:33 7.9 °C 5.6 °C 1023.9 hPa Calm     85 % 0.0 mm 60.0 W/m2 BKN
09:38 8.0 °C 5.6 °C 1024.3 hPa Calm     85 % 0.0 mm 77.0 W/m2 BKN
09:43 8.4 °C 6.2 °C 1023.9 hPa Calm     86 % 0.0 mm 102.0 W/m2 BKN
09:48 8.8 °C 6.4 °C 1023.9 hPa Calm     85 % 0.0 mm 120.0 W/m2 BKN
09:53 9.1 °C 6.3 °C 1023.9 hPa Calm     83 % 0.0 mm 116.0 W/m2 BKN
09:58 9.2 °C 6.5 °C 1023.9 hPa Calm     83 % 0.0 mm 171.0 W/m2 BKN
10:03 9.4 °C 6.7 °C 1023.9 hPa Calm     83 % 0.0 mm 105.0 W/m2 SCT
10:08 9.7 °C 6.7 °C 1023.9 hPa Calm     82 % 0.0 mm 162.0 W/m2 BKN
10:13 9.8 °C 6.8 °C 1023.6 hPa Calm     82 % 0.0 mm 171.0 W/m2 BKN
10:18 9.9 °C 7.0 °C 1023.9 hPa Calm     82 % 0.0 mm 225.0 W/m2 SCT
10:23 10.2 °C 7.2 °C 1023.9 hPa Calm     82 % 0.0 mm 239.0 W/m2 SCT
10:28 10.6 °C 7.7 °C 1023.9 hPa Calm     82 % 0.0 mm 251.0 W/m2 SCT
10:33 11.1 °C 7.7 °C 1023.9 hPa Calm     80 % 0.0 mm 264.0 W/m2 SCT
10:38 11.4 °C 7.9 °C 1023.9 hPa Calm     79 % 0.0 mm 272.0 W/m2 SCT
10:43 11.7 °C 7.8 °C 1023.9 hPa Calm     77 % 0.0 mm 283.0 W/m2 SCT
10:48 11.9 °C 8.0 °C 1023.6 hPa Calm     77 % 0.0 mm 294.0 W/m2 SCT
10:53 12.2 °C 8.3 °C 1023.6 hPa Calm     77 % 0.0 mm 304.0 W/m2 SCT
10:58 12.6 °C 8.3 °C 1023.6 hPa Calm     75 % 0.0 mm 313.0 W/m2 SCT
11:03 12.9 °C 8.6 °C 1023.6 hPa Calm     75 % 0.0 mm 320.0 W/m2 FEW
11:08 13.0 °C 8.4 °C 1023.6 hPa Calm     74 % 0.0 mm 330.0 W/m2 FEW
11:13 13.0 °C 8.4 °C 1023.6 hPa Calm     74 % 0.0 mm 339.0 W/m2 FEW
11:19 13.1 °C 8.6 °C 1023.6 hPa Calm     74 % 0.0 mm 348.0 W/m2 FEW
11:23 13.3 °C 8.6 °C 1023.2 hPa Calm     73 % 0.0 mm 355.0 W/m2 FEW
11:29 13.6 °C 8.8 °C 1023.2 hPa Calm     73 % 0.0 mm 364.0 W/m2 FEW
11:34 13.8 °C 8.8 °C 1023.2 hPa Calm     72 % 0.0 mm 371.0 W/m2 FEW
11:39 14.0 °C 8.8 °C 1022.9 hPa Calm     71 % 0.0 mm 378.0 W/m2 FEW
11:44 14.2 °C 9.1 °C 1022.9 hPa Calm     71 % 0.0 mm 385.0 W/m2 FEW
11:49 14.6 °C 9.0 °C 1022.9 hPa Calm     69 % 0.0 mm 390.0 W/m2 FEW
11:54 14.9 °C 8.9 °C 1022.6 hPa Calm     67 % 0.0 mm 397.0 W/m2 FEW
11:59 15.2 °C 8.9 °C 1022.6 hPa Calm     66 % 0.0 mm 401.0 W/m2 FEW
12:04 15.6 °C 8.8 °C 1022.6 hPa NNE 4.8 km/h 4.8 km/h 64 % 0.0 mm 410.0 W/m2 FEW
12:09 15.6 °C 8.6 °C 1022.2 hPa NW 7.4 km/h 7.4 km/h 63 % 0.0 mm 415.0 W/m2 FEW
12:14 15.6 °C 8.8 °C 1022.2 hPa NW 7.4 km/h 7.4 km/h 64 % 0.0 mm 420.0 W/m2 FEW
12:19 15.7 °C 8.9 °C 1021.9 hPa NW 7.4 km/h 7.4 km/h 64 % 0.0 mm 424.0 W/m2 CLR
12:24 15.8 °C 8.5 °C 1021.9 hPa Calm     62 % 0.0 mm 429.0 W/m2 CLR
12:29 15.9 °C 8.9 °C 1021.6 hPa Calm     63 % 0.0 mm 436.0 W/m2 CLR
12:34 16.2 °C 8.9 °C 1021.6 hPa Calm   1.0 km/h 62 % 0.0 mm 448.0 W/m2 CLR
12:39 16.5 °C 8.4 °C 1021.6 hPa SW 8.0 km/h 8.0 km/h 59 % 0.0 mm 462.0 W/m2 CLR
12:44 16.6 °C 8.8 °C 1021.6 hPa SSW 7.4 km/h 7.4 km/h 60 % 0.0 mm 480.0 W/m2 CLR
12:49 16.8 °C 8.8 °C 1021.2 hPa SSW 9.3 km/h 9.3 km/h 59 % 0.0 mm 499.0 W/m2 CLR
12:54 16.8 °C 8.8 °C 1020.9 hPa South 7.4 km/h 7.4 km/h 59 % 0.0 mm 448.0 W/m2 CLR
12:59 17.1 °C 8.7 °C 1020.9 hPa SSW 6.4 km/h 6.4 km/h 58 % 0.0 mm 306.0 W/m2 CLR
13:04 17.0 °C 8.7 °C 1020.9 hPa SW 5.6 km/h   58 % 0.0 mm 288.0 W/m2 FEW
13:09 16.9 °C 8.6 °C 1020.5 hPa SW 7.4 km/h 7.4 km/h 58 % 0.0 mm 304.0 W/m2 SCT
13:14 17.2 °C 8.8 °C 1020.5 hPa Calm     58 % 0.0 mm 401.0 W/m2 SCT
13:19 17.3 °C 8.7 °C 1020.5 hPa SW 4.8 km/h 4.8 km/h 57 % 0.0 mm 499.0 W/m2 FEW
13:24 17.4 °C 8.5 °C 1020.2 hPa WSW 5.6 km/h   56 % 0.0 mm 311.0 W/m2 FEW
13:29 17.6 °C 8.9 °C 1020.2 hPa Calm     57 % 0.0 mm 441.0 W/m2 CLR
13:34 17.9 °C 8.7 °C 1020.2 hPa Calm     55 % 0.0 mm 499.0 W/m2 CLR
13:39 18.2 °C 8.7 °C 1019.9 hPa Calm     54 % 0.0 mm 480.0 W/m2 CLR
13:44 18.5 °C 8.7 °C 1019.9 hPa Calm     53 % 0.0 mm 452.0 W/m2 CLR
13:49 18.6 °C 8.8 °C 1019.9 hPa West 7.4 km/h 7.4 km/h 53 % 0.0 mm 367.0 W/m2 CLR
13:54 18.2 °C 8.8 °C 1019.5 hPa Calm     54 % 0.0 mm 213.0 W/m2 SCT
13:59 18.1 °C 8.6 °C 1019.5 hPa Calm     54 % 0.0 mm 274.0 W/m2 SCT
14:04 18.0 °C 8.6 °C 1019.5 hPa Calm     54 % 0.0 mm 251.0 W/m2 SCT
14:09 17.9 °C 8.5 °C 1019.2 hPa NNW 5.6 km/h 5.6 km/h 54 % 0.0 mm 192.0 W/m2 SCT
14:14 17.9 °C 8.7 °C 1019.2 hPa Calm     55 % 0.0 mm 257.0 W/m2 BKN
14:19 17.9 °C 8.8 °C 1019.2 hPa Calm     55 % 0.0 mm 292.0 W/m2 SCT
14:24 18.1 °C 9.1 °C 1018.8 hPa Calm     56 % 0.0 mm 466.0 W/m2 FEW
14:29 18.2 °C 9.0 °C 1018.8 hPa NNE 9.3 km/h 9.3 km/h 55 % 0.0 mm 302.0 W/m2 CLR
14:34 18.0 °C 9.1 °C 1018.8 hPa NNE 6.4 km/h 6.4 km/h 56 % 0.0 mm 204.0 W/m2 FEW
14:39 17.9 °C 9.2 °C 1018.8 hPa Calm     57 % 0.0 mm 250.0 W/m2 SCT
14:44 17.8 °C 9.2 °C 1018.8 hPa NNE 3.7 km/h 3.7 km/h 57 % 0.0 mm 281.0 W/m2 SCT
14:49 17.8 °C 9.2 °C 1018.8 hPa Calm     57 % 0.0 mm 199.0 W/m2 SCT
14:54 17.8 °C 9.2 °C 1018.8 hPa Calm     57 % 0.0 mm 163.0 W/m2 SCT
14:59 17.7 °C 9.1 °C 1018.8 hPa Calm     57 % 0.0 mm 165.0 W/m2 BKN
15:04 17.6 °C 9.2 °C 1018.8 hPa NE 3.7 km/h   58 % 0.0 mm 167.0 W/m2 BKN
15:09 17.4 °C 9.1 °C 1018.8 hPa NE 7.4 km/h 7.4 km/h 58 % 0.0 mm 158.0 W/m2 BKN
15:14 17.3 °C 9.2 °C 1018.8 hPa NNE 9.3 km/h 9.3 km/h 59 % 0.0 mm 156.0 W/m2 BKN
15:19 17.1 °C 9.3 °C 1018.8 hPa NNE 5.6 km/h 5.6 km/h 60 % 0.0 mm 163.0 W/m2 BKN
15:24 16.9 °C 9.1 °C 1018.5 hPa Calm     60 % 0.0 mm 153.0 W/m2 SCT
15:29 16.9 °C 9.1 °C 1018.5 hPa Calm     60 % 0.0 mm 146.0 W/m2 SCT
15:34 16.9 °C 9.1 °C 1018.5 hPa Calm     60 % 0.0 mm 125.0 W/m2 SCT
15:39 16.9 °C 9.3 °C 1018.5 hPa Calm     61 % 0.0 mm 111.0 W/m2 BKN
15:44 16.9 °C 9.1 °C 1018.5 hPa Calm     60 % 0.0 mm 118.0 W/m2 BKN
15:49 16.9 °C 9.4 °C 1018.5 hPa Calm     61 % 0.0 mm 172.0 W/m2 BKN
15:54 17.1 °C 9.3 °C 1018.5 hPa Calm     60 % 0.0 mm 234.0 W/m2 SCT
15:59 17.3 °C 9.2 °C 1018.5 hPa Calm     59 % 0.0 mm 165.0 W/m2 CLR
16:04 17.3 °C 8.9 °C 1018.2 hPa Calm     58 % 0.0 mm 329.0 W/m2 CLR
16:09 17.4 °C 9.1 °C 1018.2 hPa Calm     58 % 0.0 mm 241.0 W/m2 CLR
16:14 17.5 °C 9.2 °C 1018.2 hPa Calm     58 % 0.0 mm 181.0 W/m2 CLR
16:19 17.6 °C 9.4 °C 1018.2 hPa Calm     59 % 0.0 mm 202.0 W/m2 CLR
16:24 17.6 °C 9.0 °C 1017.8 hPa Calm     57 % 0.0 mm 123.0 W/m2 CLR
16:29 17.6 °C 9.2 °C 1017.8 hPa Calm     58 % 0.0 mm 107.0 W/m2 CLR
16:34 17.4 °C 9.1 °C 1017.8 hPa Calm     58 % 0.0 mm 97.0 W/m2 CLR
16:39 17.4 °C 9.1 °C 1017.8 hPa Calm     58 % 0.0 mm 90.0 W/m2 CLR
16:44 17.3 °C 9.0 °C 1017.8 hPa Calm     58 % 0.0 mm 77.0 W/m2 CLR
16:50 17.2 °C 8.8 °C 1017.8 hPa Calm     58 % 0.0 mm 67.0 W/m2 CLR
16:55 17.1 °C 9.0 °C 1017.8 hPa Calm     59 % 0.0 mm 58.0 W/m2 CLR
17:00 16.8 °C 8.8 °C 1017.8 hPa Calm     59 % 0.0 mm 47.0 W/m2 CLR
17:05 16.7 °C 8.7 °C 1017.5 hPa Calm     59 % 0.0 mm 40.0 W/m2 CLR
17:10 16.6 °C 8.8 °C 1017.8 hPa Calm     60 % 0.0 mm 37.0 W/m2 OVC
17:15 16.4 °C 8.8 °C 1017.5 hPa Calm     61 % 0.0 mm 33.0 W/m2 OVC
17:20 16.1 °C 8.8 °C 1017.5 hPa Calm     62 % 0.0 mm 30.0 W/m2 OVC
17:25 15.9 °C 8.8 °C 1017.5 hPa Calm     63 % 0.0 mm 26.0 W/m2 OVC
17:30 15.8 °C 9.2 °C 1017.5 hPa Calm     65 % 0.0 mm 23.0 W/m2 OVC
17:35 15.5 °C 8.9 °C 1017.8 hPa Calm     65 % 0.0 mm 18.0 W/m2 OVC
17:40 15.2 °C 8.9 °C 1017.8 hPa Calm     66 % 0.0 mm 12.0 W/m2 OVC
17:45 15.1 °C 8.9 °C 1017.8 hPa Calm     67 % 0.0 mm 9.0 W/m2 OVC
17:50 14.8 °C 8.9 °C 1017.5 hPa Calm     68 % 0.0 mm 0.0 W/m2 OVC
17:55 14.5 °C 8.9 °C 1017.8 hPa Calm     69 % 0.0 mm 0.0 W/m2 CLR
18:00 14.2 °C 8.8 °C 1017.8 hPa Calm     70 % 0.0 mm 0.0 W/m2 CLR
18:05 13.9 °C 9.0 °C 1017.8 hPa Calm     72 % 0.0 mm 0.0 W/m2 CLR
18:10 13.7 °C 8.8 °C 1017.8 hPa Calm     72 % 0.0 mm 0.0 W/m2 CLR
18:15 13.4 °C 8.7 °C 1017.8 hPa Calm     73 % 0.0 mm 0.0 W/m2 CLR
18:20 12.8 °C 8.4 °C 1017.5 hPa Calm     75 % 0.0 mm 0.0 W/m2 CLR
18:25 12.4 °C 8.3 °C 1017.8 hPa Calm     76 % 0.0 mm 0.0 W/m2 CLR
18:30 12.1 °C 8.3 °C 1017.5 hPa Calm     78 % 0.0 mm 0.0 W/m2 CLR
18:35 11.7 °C 8.0 °C 1017.5 hPa Calm     78 % 0.0 mm 0.0 W/m2 CLR
18:40 11.6 °C 8.2 °C 1017.5 hPa Calm     80 % 0.0 mm 0.0 W/m2 CLR
18:45 11.6 °C 8.3 °C 1017.5 hPa Calm     80 % 0.0 mm 0.0 W/m2 CLR
18:50 11.7 °C 8.2 °C 1017.5 hPa Calm     79 % 0.0 mm 0.0 W/m2 CLR
18:56 11.2 °C 7.5 °C 1017.5 hPa Calm     78 % 0.0 mm 0.0 W/m2 CLR
19:01 10.8 °C 7.7 °C 1017.5 hPa Calm     81 % 0.0 mm 0.0 W/m2 CLR
19:06 10.5 °C 7.6 °C 1017.5 hPa Calm     82 % 0.0 mm 0.0 W/m2 CLR
19:11 10.3 °C 7.6 °C 1017.8 hPa Calm     83 % 0.0 mm 0.0 W/m2 CLR
19:16 10.2 °C 7.4 °C 1017.8 hPa Calm     83 % 0.0 mm 0.0 W/m2 CLR
19:21 10.1 °C 7.3 °C 1017.5 hPa Calm     83 % 0.0 mm 0.0 W/m2 CLR
19:26 9.9 °C 7.4 °C 1017.8 hPa Calm     84 % 0.0 mm 0.0 W/m2 CLR
19:31 9.8 °C 7.3 °C 1017.8 hPa Calm     84 % 0.0 mm 0.0 W/m2 CLR
19:36 9.7 °C 7.2 °C 1017.8 hPa Calm     84 % 0.0 mm 0.0 W/m2 CLR
19:41 9.7 °C 7.1 °C 1017.8 hPa SW 4.8 km/h 4.8 km/h 84 % 0.0 mm 0.0 W/m2 CLR
19:46 9.7 °C 7.1 °C 1017.8 hPa Calm     84 % 0.0 mm 0.0 W/m2 CLR
19:51 9.5 °C 6.9 °C 1017.8 hPa Calm     84 % 0.0 mm 0.0 W/m2 CLR
19:56 9.3 °C 6.9 °C 1017.8 hPa WSW 7.4 km/h 7.4 km/h 85 % 0.0 mm 0.0 W/m2 CLR
20:01 9.2 °C 6.8 °C 1017.8 hPa WSW 5.6 km/h 5.6 km/h 85 % 0.0 mm 0.0 W/m2 CLR
20:06 9.2 °C 6.8 °C 1017.8 hPa Calm     85 % 0.0 mm 0.0 W/m2 CLR
20:11 9.2 °C 6.8 °C 1017.8 hPa Calm     85 % 0.0 mm 0.0 W/m2 CLR
20:16 9.2 °C 6.8 °C 1017.5 hPa Calm     85 % 0.0 mm 0.0 W/m2 CLR
20:21 9.0 °C 6.6 °C 1017.5 hPa Calm     85 % 0.0 mm 0.0 W/m2 CLR
20:26 8.9 °C 6.7 °C 1017.5 hPa Calm     86 % 0.0 mm 0.0 W/m2 CLR
20:31 8.9 °C 6.7 °C 1017.5 hPa Calm     86 % 0.0 mm 0.0 W/m2 CLR
20:36 8.9 °C 6.7 °C 1017.5 hPa Calm     86 % 0.0 mm 0.0 W/m2 CLR
20:41 8.9 °C 6.7 °C 1017.5 hPa SW 9.3 km/h 9.3 km/h 86 % 0.0 mm 0.0 W/m2 CLR
20:46 9.1 °C 6.7 °C 1017.2 hPa WSW 7.4 km/h 7.4 km/h 85 % 0.0 mm 0.0 W/m2 CLR
20:51 9.0 °C 6.6 °C 1017.5 hPa Calm     85 % 0.0 mm 0.0 W/m2 CLR
20:56 9.1 °C 6.7 °C 1017.5 hPa Calm     85 % 0.0 mm 0.0 W/m2 CLR
21:01 9.0 °C 6.4 °C 1017.5 hPa Calm     84 % 0.0 mm 0.0 W/m2 CLR
21:06 9.0 °C 6.6 °C 1017.5 hPa Calm     85 % 0.0 mm 0.0 W/m2 CLR
21:11 9.1 °C 6.7 °C 1017.5 hPa Calm     85 % 0.0 mm 0.0 W/m2 CLR
21:16 9.1 °C 6.5 °C 1017.5 hPa Calm     84 % 0.0 mm 0.0 W/m2 CLR
21:21 9.4 °C 6.8 °C 1017.5 hPa West 1.9 km/h 1.9 km/h 84 % 0.0 mm 0.0 W/m2 CLR
21:26 10.1 °C 7.2 °C 1017.5 hPa West 13.0 km/h 13.0 km/h 82 % 0.0 mm 0.0 W/m2 CLR
21:31 11.9 °C 7.7 °C 1017.5 hPa West 16.7 km/h 16.7 km/h 75 % 0.0 mm 0.0 W/m2 CLR
21:36 12.8 °C 7.7 °C 1017.5 hPa WNW 16.7 km/h 16.7 km/h 71 % 0.0 mm 0.0 W/m2 CLR
21:41 12.9 °C 7.6 °C 1017.8 hPa WNW 11.1 km/h 11.1 km/h 70 % 0.0 mm 0.0 W/m2 CLR
21:46 12.9 °C 7.6 °C 1017.8 hPa WNW 11.1 km/h 11.1 km/h 70 % 0.0 mm 0.0 W/m2 CLR
21:51 12.9 °C 7.6 °C 1017.8 hPa WNW 14.8 km/h 14.8 km/h 70 % 0.0 mm 0.0 W/m2 CLR
21:56 12.9 °C 7.8 °C 1017.8 hPa WNW 11.1 km/h 11.1 km/h 71 % 0.0 mm 0.0 W/m2 CLR
22:01 12.9 °C 7.8 °C 1018.2 hPa WNW 14.8 km/h 14.8 km/h 71 % 0.0 mm 0.0 W/m2 CLR
22:06 13.0 °C 7.9 °C 1018.2 hPa WNW 13.0 km/h 13.0 km/h 71 % 0.0 mm 0.0 W/m2 CLR
22:11 13.1 °C 7.9 °C 1018.2 hPa West 11.1 km/h 11.1 km/h 71 % 0.0 mm 0.0 W/m2 CLR
22:16 13.2 °C 7.9 °C 1018.2 hPa West 16.7 km/h 16.7 km/h 70 % 0.0 mm 0.0 W/m2 CLR
22:21 13.2 °C 7.9 °C 1018.2 hPa WNW 16.7 km/h 16.7 km/h 70 % 0.0 mm 0.0 W/m2 CLR
22:26 13.1 °C 7.9 °C 1018.5 hPa WNW 11.1 km/h 11.1 km/h 71 % 0.0 mm 0.0 W/m2 CLR
22:31 12.8 °C 7.8 °C 1018.5 hPa NW 20.4 km/h 20.4 km/h 72 % 0.0 mm 0.0 W/m2 CLR
22:36 12.7 °C 7.7 °C 1018.5 hPa WNW 8.0 km/h 8.0 km/h 72 % 0.0 mm 0.0 W/m2 CLR
22:41 12.6 °C 7.8 °C 1018.5 hPa WNW 14.5 km/h 14.5 km/h 73 % 0.0 mm 0.0 W/m2 CLR
22:46 12.4 °C 7.7 °C 1018.2 hPa WNW 9.3 km/h 9.3 km/h 73 % 0.0 mm 0.0 W/m2 CLR
22:51 12.3 °C 7.8 °C 1018.2 hPa WNW 18.5 km/h 18.5 km/h 74 % 0.0 mm 0.0 W/m2 CLR
22:56 12.3 °C 7.8 °C 1018.2 hPa WNW 9.3 km/h 9.3 km/h 74 % 0.0 mm 0.0 W/m2 CLR
23:01 12.3 °C 7.8 °C 1018.2 hPa West 13.0 km/h 13.0 km/h 74 % 0.0 mm 0.0 W/m2 CLR
23:06 12.1 °C 7.6 °C 1018.2 hPa West 14.5 km/h 14.5 km/h 74 % 0.0 mm 0.0 W/m2 CLR
23:11 12.2 °C 7.9 °C 1018.2 hPa West 18.5 km/h 18.5 km/h 75 % 0.0 mm 0.0 W/m2 CLR
23:16 12.2 °C 7.7 °C 1018.2 hPa West 16.7 km/h 16.7 km/h 74 % 0.0 mm 0.0 W/m2 CLR
23:21 12.2 °C 7.7 °C 1018.2 hPa West 14.8 km/h 14.8 km/h 74 % 0.0 mm 0.0 W/m2 CLR
23:26 12.2 °C 7.7 °C 1017.8 hPa West 18.5 km/h 18.5 km/h 74 % 0.0 mm 0.0 W/m2 CLR
23:31 12.1 °C 7.6 °C 1017.8 hPa West 16.7 km/h 16.7 km/h 74 % 0.0 mm 0.0 W/m2 CLR
23:36 12.2 °C 7.7 °C 1018.2 hPa West 14.8 km/h 14.8 km/h 74 % 0.0 mm 0.0 W/m2 CLR
23:42 12.1 °C 7.6 °C 1018.2 hPa West 12.9 km/h 12.9 km/h 74 % 0.0 mm 0.0 W/m2 CLR
23:47 12.2 °C 7.7 °C 1017.8 hPa West 19.3 km/h 19.3 km/h 74 % 0.0 mm 0.0 W/m2 CLR
23:52 12.4 °C 7.7 °C 1017.8 hPa WNW 22.2 km/h 22.2 km/h 73 % 0.0 mm 0.0 W/m2 CLR
23:57 12.4 °C 7.7 °C 1017.8 hPa West 22.2 km/h 22.2 km/h 73 % 0.0 mm 0.0 W/m2 CLR
Lo Temps de Massalio
Compliments of Weather Underground - 1.25 mb